Time;durP1;ratioP1;P1;durP2;ratioP2;P2;SDS_P1;SDS_P2;PMS_P1;PMS_P2;Temp;Humidity;BMP_temperature;BMP_pressure;BME280_temperature;BME280_humidity;BME280_pressure;Samples;Min_cycle;Max_cycle;Signal;HPM_P1;HPM_P2
2022/06/08 00:02:14;;;;;;;5.80;2.75;;;12.90;99.90;;;;;;5007617;28;20033;-66
2022/06/08 00:04:40;;;;;;;4.75;2.92;;;12.90;99.90;;;;;;5024514;28;20056;-65
2022/06/08 00:07:06;;;;;;;4.70;3.40;;;13.00;99.90;;;;;;5000223;28;20391;-66
2022/06/08 00:09:31;;;;;;;3.80;2.88;;;13.10;99.90;;;;;;5005007;28;20389;-66
2022/06/08 00:11:57;;;;;;;5.13;3.53;;;13.20;99.90;;;;;;5020940;28;20501;-66
2022/06/08 00:14:23;;;;;;;2.40;2.20;;;13.20;99.90;;;;;;5018913;28;20029;-66
2022/06/08 00:16:48;;;;;;;2.80;2.50;;;13.30;99.90;;;;;;5005751;28;20113;-66
2022/06/08 00:19:14;;;;;;;4.35;2.90;;;13.40;99.90;;;;;;5022093;28;20112;-66
2022/06/08 00:21:40;;;;;;;3.25;2.78;;;13.40;99.90;;;;;;5007304;28;20475;-66
2022/06/08 00:24:05;;;;;;;3.55;2.53;;;13.50;99.90;;;;;;5011795;28;20045;-66
2022/06/08 00:26:31;;;;;;;2.95;2.65;;;13.50;99.90;;;;;;5020888;28;20042;-67
2022/06/08 00:28:57;;;;;;;3.42;3.00;;;13.50;99.90;;;;;;5024078;28;20032;-66
2022/06/08 00:31:22;;;;;;;5.85;3.28;;;13.60;99.90;;;;;;5020991;28;20026;-66
2022/06/08 00:33:48;;;;;;;3.50;2.60;;;13.60;99.90;;;;;;5023859;28;20036;-65
2022/06/08 00:36:14;;;;;;;3.75;2.58;;;13.70;99.90;;;;;;5016599;28;20105;-66
2022/06/08 00:38:39;;;;;;;3.65;3.25;;;13.70;99.90;;;;;;5023680;28;20033;-65
2022/06/08 00:41:28;;;;;;;4.38;2.70;;;13.70;99.90;;;;;;5020697;28;20532;-66
2022/06/08 00:43:55;;;;;;;3.70;2.90;;;13.80;99.90;;;;;;5004736;28;20033;-66
2022/06/08 00:46:21;;;;;;;3.10;2.80;;;13.80;99.90;;;;;;5007085;28;20037;-66
2022/06/08 00:48:52;;;;;;;3.42;2.55;;;13.80;99.90;;;;;;5009426;28;20079;-67
2022/06/08 00:51:18;;;;;;;2.53;2.33;;;13.80;99.90;;;;;;5026694;28;20036;-66
2022/06/08 00:53:53;;;;;;;3.97;2.33;;;13.80;99.90;;;;;;5007950;28;20038;-66
2022/06/08 00:56:25;;;;;;;4.45;2.30;;;13.90;99.90;;;;;;5026029;28;20412;-66
2022/06/08 00:58:51;;;;;;;3.30;2.92;;;13.90;99.90;;;;;;4992236;28;20032;-60
2022/06/08 01:01:17;;;;;;;3.40;2.53;;;13.90;99.90;;;;;;5007983;28;20038;-60
2022/06/08 01:03:42;;;;;;;2.63;2.30;;;13.90;99.90;;;;;;4999868;28;20077;-60
2022/06/08 01:06:19;;;;;;;4.30;3.15;;;14.00;99.90;;;;;;5021511;28;20398;-60
2022/06/08 01:08:46;;;;;;;3.03;2.78;;;14.00;99.90;;;;;;4990556;28;20953;-60
2022/06/08 01:11:31;;;;;;;5.38;3.05;;;14.00;99.90;;;;;;5026531;28;20030;-52
2022/06/08 01:14:00;;;;;;;4.88;2.90;;;14.00;99.90;;;;;;5003010;28;20029;-51
2022/06/08 01:16:26;;;;;;;3.30;2.65;;;14.10;99.90;;;;;;5024346;28;20026;-55
2022/06/08 01:18:51;;;;;;;3.20;2.88;;;14.10;99.90;;;;;;5008837;28;20087;-55
2022/06/08 01:21:22;;;;;;;2.80;2.60;;;14.10;99.90;;;;;;5009052;28;20033;-54
2022/06/08 01:23:59;;;;;;;2.85;2.55;;;14.10;99.90;;;;;;5023252;28;20139;-55
2022/06/08 01:26:30;;;;;;;3.30;3.00;;;14.10;99.90;;;;;;5026449;28;20049;-53
2022/06/08 01:29:16;;;;;;;3.05;2.80;;;14.10;99.90;;;;;;4997153;28;20544;-54
2022/06/08 01:31:49;;;;;;;4.85;2.95;;;14.20;99.90;;;;;;4992768;28;20041;-55
2022/06/08 01:34:27;;;;;;;2.60;2.40;;;14.20;99.90;;;;;;5024396;28;20034;-54
2022/06/08 01:37:23;;;;;;;4.35;3.30;;;14.20;99.90;;;;;;5026165;28;20045;-52
2022/06/08 01:40:16;;;;;;;3.33;2.95;;;14.20;99.90;;;;;;5007258;28;20025;-52
2022/06/08 01:42:51;;;;;;;3.15;2.85;;;14.30;99.90;;;;;;4987042;28;20132;-54
2022/06/08 01:45:36;;;;;;;3.13;2.83;;;14.30;99.90;;;;;;4989057;28;20494;-55
2022/06/08 01:48:28;;;;;;;3.95;2.75;;;14.30;99.90;;;;;;4987106;28;20041;-55
2022/06/08 01:51:14;;;;;;;2.63;2.42;;;14.30;99.90;;;;;;4987007;28;20034;-54
2022/06/08 01:53:53;;;;;;;3.53;3.00;;;14.30;99.90;;;;;;4971344;28;20039;-50
2022/06/08 01:56:43;;;;;;;3.03;2.70;;;14.20;99.90;;;;;;4989328;28;20265;-53
2022/06/08 01:59:33;;;;;;;3.83;2.78;;;14.20;99.90;;;;;;5001392;28;20033;-54
2022/06/08 02:02:25;;;;;;;2.78;2.58;;;14.10;99.90;;;;;;5025924;28;20654;-52
2022/06/08 02:05:05;;;;;;;3.30;2.80;;;13.90;99.90;;;;;;5003582;28;20057;-50
2022/06/08 02:07:48;;;;;;;3.75;2.97;;;13.80;99.90;;;;;;4986794;28;20038;-50
2022/06/08 02:10:23;;;;;;;4.13;2.60;;;13.70;99.90;;;;;;5001611;28;20033;-52
2022/06/08 02:12:56;;;;;;;3.45;2.67;;;13.70;99.90;;;;;;5028060;28;20026;-54
2022/06/08 02:15:28;;;;;;;4.75;3.42;;;13.70;99.90;;;;;;5002455;28;20097;-51
2022/06/08 02:17:56;;;;;;;3.10;2.80;;;13.60;99.90;;;;;;5028677;28;20373;-54
2022/06/08 02:20:42;;;;;;;3.88;3.25;;;13.40;99.90;;;;;;5010847;28;20081;-55
2022/06/08 02:23:15;;;;;;;4.05;3.10;;;13.30;99.90;;;;;;4990154;28;20100;-53
2022/06/08 02:25:46;;;;;;;4.25;3.28;;;13.20;99.90;;;;;;5006589;28;20038;-53
2022/06/08 02:28:24;;;;;;;5.43;3.20;;;13.00;99.90;;;;;;4990164;28;20038;-53
2022/06/08 02:30:58;;;;;;;6.40;3.63;;;12.90;99.90;;;;;;5009253;28;20505;-51
2022/06/08 02:36:27;;;;;;;3.45;3.15;;;12.60;99.90;;;;;;4996720;28;20041;-50
2022/06/08 02:39:18;;;;;;;3.90;3.50;;;12.50;99.90;;;;;;4995155;28;20044;-53
2022/06/08 02:41:47;;;;;;;3.85;3.25;;;12.40;99.90;;;;;;5017922;28;20052;-52
2022/06/08 02:44:24;;;;;;;4.32;3.70;;;12.30;99.90;;;;;;5009656;28;20208;-54
2022/06/08 02:47:27;;;;;;;4.22;3.63;;;12.30;99.90;;;;;;5007924;28;20041;-47
2022/06/08 02:49:53;;;;;;;3.88;3.40;;;12.20;99.90;;;;;;5008438;28;20440;-54
2022/06/08 02:52:22;;;;;;;4.05;3.63;;;12.20;99.90;;;;;;5028726;28;20021;-51
2022/06/08 02:54:49;;;;;;;4.60;3.75;;;12.20;99.90;;;;;;5008136;28;20277;-48
2022/06/08 02:57:19;;;;;;;3.72;3.38;;;12.10;99.90;;;;;;5010091;28;20022;-49
2022/06/08 03:00:34;;;;;;;3.95;3.38;;;12.10;99.90;;;;;;5013209;28;20029;-55
2022/06/08 03:03:23;;;;;;;4.75;3.28;;;12.10;99.90;;;;;;4975612;28;20055;-52
2022/06/08 03:05:58;;;;;;;3.45;3.10;;;12.00;99.90;;;;;;5005292;28;20049;-53
2022/06/08 03:08:35;;;;;;;3.63;3.10;;;12.00;99.90;;;;;;4990481;28;20022;-51
2022/06/08 03:11:04;;;;;;;4.20;3.78;;;12.00;99.90;;;;;;5001823;28;20026;-53
2022/06/08 03:13:33;;;;;;;4.25;3.75;;;11.90;99.90;;;;;;5029467;28;20092;-52
2022/06/08 03:16:05;;;;;;;4.53;4.10;;;11.90;99.90;;;;;;4995099;28;20031;-67
2022/06/08 03:18:30;;;;;;;6.88;4.68;;;12.00;99.90;;;;;;5009557;28;20060;-61
2022/06/08 03:20:57;;;;;;;4.03;3.50;;;12.00;99.90;;;;;;5013469;28;20030;-68
2022/06/08 03:23:24;;;;;;;3.85;3.53;;;12.10;99.90;;;;;;5028627;28;20029;-68
2022/06/08 03:25:50;;;;;;;4.95;4.22;;;12.30;99.90;;;;;;4996567;28;20022;-68
2022/06/08 03:28:17;;;;;;;5.78;3.90;;;12.30;99.90;;;;;;5009275;28;20033;-69
2022/06/08 03:30:44;;;;;;;3.88;2.90;;;12.60;99.90;;;;;;5026715;28;20029;-68
2022/06/08 03:33:10;;;;;;;4.22;2.95;;;12.70;99.90;;;;;;5009858;28;20092;-68
2022/06/08 03:35:36;;;;;;;2.88;2.67;;;12.70;99.90;;;;;;5008883;28;20132;-68
2022/06/08 03:38:02;;;;;;;4.63;3.42;;;12.80;99.90;;;;;;5010085;28;20286;-69
2022/06/08 03:40:28;;;;;;;4.18;3.78;;;12.90;99.90;;;;;;5025316;28;20100;-67
2022/06/08 03:42:54;;;;;;;5.50;4.10;;;13.00;99.90;;;;;;5009592;28;20077;-69
2022/06/08 03:45:20;;;;;;;4.25;3.55;;;13.00;99.90;;;;;;5026402;28;20029;-67
2022/06/08 03:47:48;;;;;;;3.70;2.53;;;13.10;99.90;;;;;;5009923;28;20030;-67
2022/06/08 03:50:18;;;;;;;4.78;4.28;;;13.10;99.90;;;;;;5026670;28;20512;-68
2022/06/08 03:52:48;;;;;;;4.55;3.58;;;13.10;99.90;;;;;;5029915;28;20021;-67
2022/06/08 03:55:19;;;;;;;5.65;3.65;;;13.20;99.90;;;;;;5002410;28;20032;-67
2022/06/08 03:57:45;;;;;;;4.50;3.38;;;13.40;99.90;;;;;;5029926;28;20485;-67
2022/06/08 04:00:12;;;;;;;6.00;3.22;;;13.80;99.90;;;;;;5004496;28;20052;-67
2022/06/08 04:02:39;;;;;;;4.18;2.72;;;16.30;99.90;;;;;;5029326;28;20033;-67
2022/06/08 04:05:05;;;;;;;4.40;3.25;;;16.70;99.90;;;;;;5008479;28;20049;-68
2022/06/08 04:07:32;;;;;;;5.53;3.90;;;16.40;99.90;;;;;;5010170;28;20493;-68
2022/06/08 04:09:58;;;;;;;4.63;3.10;;;16.30;99.90;;;;;;5027161;28;20057;-68
2022/06/08 04:12:24;;;;;;;4.45;2.97;;;16.20;99.90;;;;;;5029754;28;20056;-67
2022/06/08 04:14:50;;;;;;;3.42;3.13;;;16.20;99.90;;;;;;5008400;28;20363;-67
2022/06/08 04:17:16;;;;;;;4.47;3.97;;;16.20;99.90;;;;;;5009969;28;20014;-67
2022/06/08 04:19:41;;;;;;;4.50;3.33;;;16.20;99.90;;;;;;5009139;28;20080;-67
2022/06/08 04:22:07;;;;;;;5.80;4.25;;;16.20;99.90;;;;;;5029356;28;20096;-67
2022/06/08 04:24:32;;;;;;;3.13;2.83;;;16.10;99.90;;;;;;5008288;28;20037;-67
2022/06/08 04:26:58;;;;;;;4.10;3.78;;;16.10;99.90;;;;;;5009796;28;20513;-68
2022/06/08 04:29:24;;;;;;;3.75;3.45;;;18.70;99.90;;;;;;5026566;28;20021;-66
2022/06/08 04:31:49;;;;;;;3.03;2.80;;;21.50;94.10;;;;;;5029328;28;20017;-67
2022/06/08 04:34:16;;;;;;;2.63;2.42;;;23.60;74.30;;;;;;5009902;28;20038;-67
2022/06/08 04:36:43;;;;;;;3.45;2.33;;;25.40;60.10;;;;;;5008087;28;20033;-67
2022/06/08 04:39:12;;;;;;;2.53;2.22;;;26.80;48.90;;;;;;5028831;28;20140;-67
2022/06/08 04:41:38;;;;;;;3.35;2.38;;;28.20;42.20;;;;;;4999212;28;20042;-67
2022/06/08 04:44:04;;;;;;;4.15;2.35;;;29.50;37.70;;;;;;5028519;28;20044;-67
2022/06/08 04:46:30;;;;;;;2.22;2.03;;;30.50;33.40;;;;;;4990886;28;20034;-67
2022/06/08 04:48:56;;;;;;;3.08;1.80;;;31.60;30.50;;;;;;5008849;28;20041;-67
2022/06/08 04:51:22;;;;;;;2.40;2.00;;;32.60;26.20;;;;;;4992914;28;20034;-67
2022/06/08 04:53:47;;;;;;;2.78;2.35;;;33.80;24.40;;;;;;5028324;28;20057;-67
2022/06/08 04:56:13;;;;;;;2.67;1.92;;;35.00;22.70;;;;;;4993217;28;20030;-68
2022/06/08 04:58:39;;;;;;;1.75;1.40;;;35.30;21.00;;;;;;5027917;28;20045;-67
2022/06/08 05:01:05;;;;;;;1.95;1.77;;;32.70;21.90;;;;;;4990914;28;20081;-67
2022/06/08 05:03:31;;;;;;;2.85;1.77;;;30.60;24.80;;;;;;5008494;28;20045;-68
2022/06/08 05:05:58;;;;;;;2.67;1.88;;;31.70;25.40;;;;;;5013774;28;20441;-68
2022/06/08 05:08:24;;;;;;;1.35;1.25;;;33.20;20.80;;;;;;5028517;28;20488;-68
2022/06/08 05:10:51;;;;;;;3.70;1.63;;;34.30;17.70;;;;;;4996491;28;20026;-53
2022/06/08 05:13:18;;;;;;;2.42;1.50;;;35.50;15.40;;;;;;5027911;28;20443;-57
2022/06/08 05:15:44;;;;;;;1.58;1.40;;;36.20;13.50;;;;;;5007455;28;20042;-56
2022/06/08 05:18:12;;;;;;;1.88;1.67;;;33.90;15.20;;;;;;5028394;28;20069;-57
2022/06/08 05:20:40;;;;;;;1.63;1.48;;;35.50;13.40;;;;;;5007362;28;20030;-57
2022/06/08 05:23:09;;;;;;;2.33;1.58;;;36.40;6.70;;;;;;5028265;28;20037;-57
2022/06/08 05:25:37;;;;;;;1.40;1.23;;;36.90;8.80;;;;;;5007132;28;20026;-58
2022/06/08 05:28:04;;;;;;;2.38;1.55;;;37.20;8.10;;;;;;5028255;28;20079;-56
2022/06/08 05:30:32;;;;;;;1.50;1.25;;;38.30;7.10;;;;;;5007445;28;20041;-57
2022/06/08 05:32:57;;;;;;;1.30;1.20;;;39.20;6.20;;;;;;5028346;28;20049;-57
2022/06/08 05:35:23;;;;;;;1.20;1.05;;;40.10;4.60;;;;;;5007771;28;20022;-58
2022/06/08 05:37:49;;;;;;;1.45;1.15;;;40.80;3.30;;;;;;5028030;28;20030;-58
2022/06/08 05:40:16;;;;;;;1.70;1.40;;;38.50;3.50;;;;;;5007406;28;20057;-59
2022/06/08 05:42:41;;;;;;;2.95;1.20;;;37.50;4.40;;;;;;5008957;28;20418;-57
2022/06/08 05:45:13;;;;;;;1.20;1.10;;;35.30;5.60;;;;;;5029754;28;20116;-58
2022/06/08 05:47:39;;;;;;;1.30;1.20;;;33.90;6.30;;;;;;5032407;28;20052;-58
2022/06/08 05:50:04;;;;;;;1.52;1.00;;;32.90;7.60;;;;;;5011267;28;20494;-57
2022/06/08 05:52:30;;;;;;;1.50;1.00;;;32.00;8.00;;;;;;5012807;28;20108;-57
2022/06/08 05:54:55;;;;;;;1.90;1.52;;;31.30;8.70;;;;;;5029861;28;20030;-58
2022/06/08 05:57:21;;;;;;;3.60;1.40;;;31.00;9.20;;;;;;5032467;28;20030;-57
2022/06/08 05:59:46;;;;;;;1.92;1.38;;;30.90;8.70;;;;;;5010225;28;20525;-57
2022/06/08 06:02:14;;;;;;;2.33;1.20;;;30.70;8.10;;;;;;5012517;28;20030;-58
2022/06/08 06:04:40;;;;;;;1.20;1.10;;;29.80;8.20;;;;;;5029624;28;20525;-57
2022/06/08 06:07:06;;;;;;;1.75;1.10;;;29.40;8.30;;;;;;5014149;28;20050;-57
2022/06/08 06:09:32;;;;;;;1.33;1.02;;;29.00;8.20;;;;;;5020309;28;20480;-54
2022/06/08 06:11:58;;;;;;;1.33;1.15;;;28.80;7.70;;;;;;5016392;28;20042;-55
2022/06/08 06:14:24;;;;;;;2.25;1.45;;;28.70;7.50;;;;;;5030259;28;20068;-54
2022/06/08 06:16:49;;;;;;;4.15;1.30;;;28.10;7.90;;;;;;5009646;28;20065;-50
2022/06/08 06:19:14;;;;;;;3.70;1.25;;;27.90;9.40;;;;;;5016398;28;20402;-50
2022/06/08 06:21:40;;;;;;;3.80;1.60;;;28.30;9.10;;;;;;5008861;28;20026;-57
2022/06/08 06:24:07;;;;;;;5.82;1.50;;;28.90;8.40;;;;;;5029956;28;20080;-56
2022/06/08 06:26:32;;;;;;;3.45;1.38;;;30.00;7.50;;;;;;5009688;28;20117;-49
2022/06/08 06:28:58;;;;;;;3.22;1.50;;;30.30;6.40;;;;;;5029847;28;20108;-49
2022/06/08 06:31:35;;;;;;;4.50;1.40;;;30.50;5.90;;;;;;5009651;28;20021;-56
2022/06/08 06:34:01;;;;;;;1.40;1.30;;;29.80;6.10;;;;;;4991255;28;20038;-56
2022/06/08 06:36:26;;;;;;;2.60;1.30;;;29.70;6.60;;;;;;5027268;28;20034;-57
2022/06/08 06:38:52;;;;;;;3.30;1.20;;;29.60;5.80;;;;;;5011337;28;20108;-53
2022/06/08 06:41:18;;;;;;;1.63;1.42;;;29.70;6.60;;;;;;5013616;28;20074;-55
2022/06/08 06:43:44;;;;;;;4.55;1.02;;;29.80;6.80;;;;;;4990899;28;20038;-56
2022/06/08 06:46:11;;;;;;;2.97;1.15;;;30.10;6.70;;;;;;5008053;28;20124;-56
2022/06/08 06:48:36;;;;;;;4.22;1.10;;;30.50;6.20;;;;;;5010579;28;20109;-52
2022/06/08 06:51:03;;;;;;;1.77;1.20;;;30.80;6.00;;;;;;5027585;28;20133;-54
2022/06/08 06:53:29;;;;;;;3.63;1.02;;;30.60;5.00;;;;;;5030207;28;20056;-52
2022/06/08 06:55:55;;;;;;;2.10;1.13;;;31.00;5.40;;;;;;5007624;28;20041;-52
2022/06/08 06:58:22;;;;;;;3.10;1.25;;;31.40;5.40;;;;;;5010392;28;20109;-56
2022/06/08 07:00:47;;;;;;;3.13;1.00;;;33.10;3.80;;;;;;5024001;28;20025;-55
2022/06/08 07:03:13;;;;;;;1.90;1.00;;;34.00;1.80;;;;;;5030075;28;20424;-53
2022/06/08 07:05:38;;;;;;;1.25;1.15;;;32.90;2.30;;;;;;5009045;28;20208;-56
2022/06/08 07:08:05;;;;;;;3.80;0.85;;;33.30;2.10;;;;;;5029947;28;20029;-53
2022/06/08 07:10:31;;;;;;;2.75;0.88;;;35.10;1.60;;;;;;5008528;28;20178;-53
2022/06/08 07:12:57;;;;;;;1.35;1.13;;;38.20;1.00;;;;;;5009839;28;20026;-54
2022/06/08 07:15:23;;;;;;;2.22;1.23;;;39.40;1.00;;;;;;5029300;28;20056;-52
2022/06/08 07:17:50;;;;;;;3.25;1.27;;;39.00;1.00;;;;;;4989915;28;20027;-50
2022/06/08 07:20:16;;;;;;;1.98;0.98;;;39.40;1.00;;;;;;5009296;28;20034;-49
2022/06/08 07:22:41;;;;;;;3.17;1.08;;;40.60;1.00;;;;;;5009238;28;20041;-52
2022/06/08 07:25:08;;;;;;;2.40;0.70;;;41.60;1.00;;;;;;5028685;28;20033;-55
2022/06/08 07:27:35;;;;;;;4.85;1.20;;;42.10;1.00;;;;;;4991710;28;20138;-53
2022/06/08 07:30:03;;;;;;;3.20;0.85;;;43.00;1.00;;;;;;5008923;28;20469;-53
2022/06/08 07:32:29;;;;;;;1.13;0.70;;;44.10;1.00;;;;;;5010927;28;20034;-51
2022/06/08 07:34:54;;;;;;;1.23;1.00;;;44.90;1.00;;;;;;5028478;28;20029;-52
2022/06/08 07:37:19;;;;;;;2.30;0.90;;;45.70;1.00;;;;;;4993501;28;20026;-52
2022/06/08 07:39:45;;;;;;;0.80;0.50;;;45.90;1.00;;;;;;5008439;28;20076;-53
2022/06/08 07:42:10;;;;;;;2.53;0.63;;;45.60;1.00;;;;;;5012877;28;20077;-55
2022/06/08 07:44:36;;;;;;;1.92;0.60;;;45.50;1.00;;;;;;5028255;28;20076;-55
2022/06/08 07:47:01;;;;;;;0.60;0.50;;;45.80;1.00;;;;;;4995443;28;20070;-52
2022/06/08 07:49:36;;;;;;;0.85;0.60;;;45.90;1.00;;;;;;5008432;28;20044;-54
2022/06/08 07:52:17;;;;;;;1.13;0.65;;;45.60;1.00;;;;;;5000076;28;20104;-52
2022/06/08 07:54:44;;;;;;;0.80;0.80;;;45.80;1.00;;;;;;4989598;28;20031;-47
2022/06/08 07:57:16;;;;;;;0.82;0.50;;;46.40;1.00;;;;;;5012703;28;20034;-53
2022/06/08 07:59:42;;;;;;;0.77;0.60;;;46.30;1.00;;;;;;5020432;28;20029;-50
2022/06/08 08:02:08;;;;;;;1.02;0.52;;;46.30;1.00;;;;;;5007204;28;20433;-49
2022/06/08 08:04:35;;;;;;;1.85;0.40;;;46.20;1.00;;;;;;5027937;28;20030;-53
2022/06/08 08:07:00;;;;;;;1.48;0.70;;;46.10;1.00;;;;;;4994742;28;20030;-53
2022/06/08 08:09:26;;;;;;;1.63;0.60;;;45.70;1.00;;;;;;5008196;28;20061;-52
2022/06/08 08:11:53;;;;;;;1.42;0.63;;;45.00;1.00;;;;;;5014827;28;20029;-51
2022/06/08 08:14:21;;;;;;;0.70;0.50;;;44.70;1.00;;;;;;5028042;28;20116;-53
2022/06/08 08:16:48;;;;;;;0.40;0.40;;;45.00;1.00;;;;;;5006731;28;20054;-53
2022/06/08 08:19:17;;;;;;;2.08;0.70;;;45.00;1.00;;;;;;5009734;28;20417;-49
2022/06/08 08:21:43;;;;;;;1.05;0.60;;;43.30;1.00;;;;;;5006857;28;20065;-54
2022/06/08 08:24:09;;;;;;;3.70;0.70;;;41.70;1.00;;;;;;5027393;28;20091;-51
2022/06/08 08:26:35;;;;;;;0.98;0.77;;;40.60;1.00;;;;;;5007034;28;20026;-53
2022/06/08 08:29:01;;;;;;;0.80;0.65;;;40.50;1.00;;;;;;5027630;28;20036;-55
2022/06/08 08:31:26;;;;;;;0.90;0.60;;;40.00;1.00;;;;;;5007057;28;20544;-53
2022/06/08 08:33:52;;;;;;;1.08;0.60;;;39.30;1.00;;;;;;5027799;28;20033;-55
2022/06/08 08:36:18;;;;;;;0.70;0.40;;;39.30;1.00;;;;;;5006834;28;20489;-54
2022/06/08 08:38:45;;;;;;;4.13;0.80;;;37.70;1.00;;;;;;5008359;28;20026;-50
2022/06/08 08:44:06;;;;;;;1.98;1.02;;;38.70;1.00;;;;;;4988935;28;20112;-54
2022/06/08 08:46:53;;;;;;;0.93;0.65;;;40.60;1.00;;;;;;5005780;28;20095;-56
2022/06/08 08:49:20;;;;;;;2.05;0.60;;;39.70;1.00;;;;;;4988881;28;20045;-56
2022/06/08 08:52:13;;;;;;;1.25;0.77;;;40.50;1.00;;;;;;5024956;28;20072;-53
2022/06/08 08:54:46;;;;;;;1.20;0.63;;;41.40;1.00;;;;;;4988712;28;20019;-55
2022/06/08 08:57:11;;;;;;;0.60;0.50;;;41.90;1.00;;;;;;5000638;28;20105;-55
2022/06/08 08:59:40;;;;;;;2.00;0.70;;;40.30;1.00;;;;;;5019174;28;20108;-53
2022/06/08 09:02:13;;;;;;;1.95;0.57;;;38.10;1.00;;;;;;5006144;28;20052;-54
2022/06/08 09:04:45;;;;;;;1.23;0.60;;;36.20;1.00;;;;;;4988352;28;20117;-55
2022/06/08 09:07:19;;;;;;;0.80;0.50;;;35.10;1.00;;;;;;5012437;28;20524;-52
2022/06/08 09:09:45;;;;;;;5.80;0.93;;;37.00;1.00;;;;;;4988593;28;20455;-63
2022/06/08 09:12:18;;;;;;;1.05;0.70;;;36.40;1.00;;;;;;5011090;28;20026;-63
2022/06/08 09:14:55;;;;;;;0.50;0.50;;;35.30;1.00;;;;;;5027466;28;20220;-63
2022/06/08 09:17:34;;;;;;;3.20;0.73;;;34.20;1.00;;;;;;5001523;28;20420;-63
2022/06/08 09:20:03;;;;;;;0.82;0.50;;;33.30;1.00;;;;;;5031292;28;20540;-57
2022/06/08 09:22:31;;;;;;;0.60;0.50;;;34.10;1.00;;;;;;4994076;28;20045;-62
2022/06/08 09:25:19;;;;;;;0.47;0.47;;;35.80;1.00;;;;;;5006035;28;20133;-57
2022/06/08 09:27:49;;;;;;;0.90;0.60;;;37.70;1.00;;;;;;4992037;28;20034;-56
2022/06/08 09:30:20;;;;;;;3.10;0.75;;;39.10;1.00;;;;;;5028649;28;20102;-56
2022/06/08 09:32:52;;;;;;;0.50;0.40;;;37.60;1.00;;;;;;4992178;28;20026;-56
2022/06/08 09:35:28;;;;;;;0.40;0.40;;;35.80;1.00;;;;;;5011228;28;20033;-56
2022/06/08 09:38:00;;;;;;;0.95;0.70;;;34.20;1.00;;;;;;4994269;28;20092;-57
2022/06/08 09:40:40;;;;;;;1.13;0.60;;;34.30;1.00;;;;;;5012871;28;20033;-57
2022/06/08 09:43:45;;;;;;;1.10;0.70;;;33.40;1.00;;;;;;5011519;28;20060;-57
2022/06/08 09:53:17;;;;;;;0.52;0.50;;;35.50;1.00;;;;;;5029593;28;20041;-57
2022/06/08 09:55:53;;;;;;;0.50;0.50;;;37.40;1.00;;;;;;5031096;28;20064;-59
2022/06/08 09:58:45;;;;;;;0.65;0.57;;;35.80;1.00;;;;;;5005209;28;20021;-58
2022/06/08 10:01:21;;;;;;;0.55;0.50;;;34.30;1.00;;;;;;4984254;28;20049;-57
2022/06/08 10:04:32;;;;;;;2.92;0.47;;;33.30;1.00;;;;;;4994686;28;20038;-57
2022/06/08 10:07:07;;;;;;;1.05;0.57;;;32.30;1.00;;;;;;4997507;28;20022;-57
2022/06/08 10:09:40;;;;;;;;;;;31.80;1.00;;;;;;4998300;28;20037;-56
2022/06/08 10:12:22;;;;;;;0.50;0.50;;;31.50;1.00;;;;;;4997953;28;19920;-57
2022/06/08 10:15:06;;;;;;;0.75;0.60;;;31.10;1.00;;;;;;4992867;28;20358;-56
2022/06/08 10:17:50;;;;;;;0.50;0.50;;;30.80;1.40;;;;;;5000312;28;20121;-57
2022/06/08 10:20:24;;;;;;;0.50;0.50;;;30.70;1.30;;;;;;5018510;28;20120;-57
2022/06/08 10:22:54;;;;;;;1.00;0.50;;;30.40;1.70;;;;;;5007748;28;20113;-55
2022/06/08 10:25:34;;;;;;;0.85;0.60;;;30.10;2.50;;;;;;5012348;28;20105;-56
2022/06/08 10:28:12;;;;;;;1.23;0.70;;;30.10;3.00;;;;;;4988287;28;20065;-56
2022/06/08 10:31:15;;;;;;;2.15;0.52;;;30.00;2.60;;;;;;5005051;28;20392;-56
2022/06/08 10:34:02;;;;;;;0.77;0.60;;;30.00;3.30;;;;;;4995105;28;20057;-57
2022/06/08 10:36:31;;;;;;;1.10;0.45;;;29.50;3.70;;;;;;5005467;28;20045;-57
2022/06/08 10:39:03;;;;;;;0.43;0.43;;;29.60;3.40;;;;;;5001158;28;20051;-56
2022/06/08 10:44:50;;;;;;;0.50;0.50;;;29.80;3.90;;;;;;4925762;29;20039;-54
2022/06/08 10:47:52;;;;;;;1.05;0.45;;;29.80;3.30;;;;;;4918953;29;20508;-55
2022/06/08 10:50:28;;;;;;;1.85;0.45;;;29.60;3.60;;;;;;4976249;28;20038;-56
2022/06/08 10:54:52;;;;;;;0.65;0.47;;;29.60;3.70;;;;;;4970867;28;20081;-54
2022/06/08 10:55:40;;;;;;;1.40;0.88;;;29.40;3.60;;;;;;4999208;28;20579;-56
2022/06/08 10:58:11;;;;;;;0.68;0.60;;;29.00;4.40;;;;;;5009451;28;20061;-57
2022/06/08 11:00:58;;;;;;;1.85;0.63;;;29.00;4.70;;;;;;4992873;28;20502;-57
2022/06/08 11:03:42;;;;;;;0.52;0.52;;;29.10;4.80;;;;;;5015104;28;20473;-57
2022/06/08 11:06:11;;;;;;;1.00;0.50;;;29.00;5.30;;;;;;4992643;28;20519;-54
2022/06/08 11:08:56;;;;;;;0.60;0.30;;;28.80;4.60;;;;;;5005980;28;20030;-57
2022/06/08 11:11:42;;;;;;;1.17;0.63;;;28.80;5.00;;;;;;5014808;28;20367;-57
2022/06/08 11:14:30;;;;;;;0.40;0.40;;;28.90;5.20;;;;;;4999141;28;20512;-57
2022/06/08 11:17:08;;;;;;;0.98;0.57;;;28.90;5.70;;;;;;4999871;28;20030;-55
2022/06/08 11:19:34;;;;;;;2.58;0.65;;;29.00;5.10;;;;;;4999793;28;20183;-57
2022/06/08 11:22:04;;;;;;;0.50;0.50;;;29.10;5.00;;;;;;5026169;28;20112;-55
2022/06/08 11:24:36;;;;;;;0.40;0.40;;;28.90;5.00;;;;;;4999324;28;20033;-55
2022/06/08 11:27:11;;;;;;;1.27;0.70;;;28.90;5.70;;;;;;4987816;28;20065;-57
2022/06/08 11:29:42;;;;;;;1.45;0.55;;;28.70;5.80;;;;;;5006136;28;20417;-56
2022/06/08 11:32:40;;;;;;;0.95;0.70;;;28.50;5.40;;;;;;5002686;28;20105;-57
2022/06/08 11:35:35;;;;;;;1.58;0.63;;;28.00;5.70;;;;;;5013753;28;20094;-54
2022/06/08 11:38:15;;;;;;;1.55;0.70;;;27.60;7.00;;;;;;4990247;28;20030;-54
2022/06/08 11:40:42;;;;;;;1.38;0.80;;;27.70;6.70;;;;;;5006881;28;20034;-56
2022/06/08 11:43:10;;;;;;;0.55;0.50;;;27.90;7.00;;;;;;5028699;28;20026;-57
2022/06/08 11:45:57;;;;;;;0.63;0.50;;;28.00;6.40;;;;;;4990332;28;20030;-52
2022/06/08 11:48:27;;;;;;;0.80;0.77;;;28.10;5.90;;;;;;4989891;28;20073;-53
2022/06/08 11:50:54;;;;;;;1.05;0.77;;;27.90;6.00;;;;;;5026666;28;20040;-58
2022/06/08 11:53:35;;;;;;;1.00;0.70;;;27.70;6.60;;;;;;5029153;28;20030;-56
2022/06/08 11:56:29;;;;;;;1.95;0.98;;;27.10;8.30;;;;;;5007407;28;20038;-53
2022/06/08 11:59:00;;;;;;;0.73;0.60;;;27.10;8.50;;;;;;5009213;28;20080;-57
2022/06/08 12:01:38;;;;;;;0.50;0.50;;;27.30;8.10;;;;;;5023305;28;20033;-58
2022/06/08 12:04:07;;;;;;;1.25;0.77;;;27.40;8.40;;;;;;5028562;28;20025;-58
2022/06/08 12:06:36;;;;;;;0.85;0.73;;;27.30;9.00;;;;;;4994782;28;20448;-57
2022/06/08 12:09:06;;;;;;;0.93;0.60;;;27.30;8.40;;;;;;5028857;28;20108;-56
2022/06/08 12:11:33;;;;;;;0.90;0.65;;;27.30;8.10;;;;;;5007126;28;20529;-56
2022/06/08 12:14:27;;;;;;;1.10;0.70;;;27.30;8.30;;;;;;5009204;28;20088;-57
2022/06/08 12:17:19;;;;;;;2.08;0.73;;;27.40;8.80;;;;;;5004984;28;20025;-57
2022/06/08 12:19:48;;;;;;;1.15;0.88;;;27.50;8.10;;;;;;4991654;28;20045;-58
2022/06/08 12:22:29;;;;;;;0.93;0.60;;;27.60;8.30;;;;;;4977992;28;20126;-57
2022/06/08 12:25:10;;;;;;;0.95;0.95;;;27.70;8.80;;;;;;4989229;28;20031;-58
2022/06/08 12:27:53;;;;;;;0.80;0.63;;;27.80;8.40;;;;;;5010988;28;20057;-56
2022/06/08 12:30:22;;;;;;;0.40;0.40;;;27.60;8.60;;;;;;4989370;28;20034;-57
2022/06/08 12:32:54;;;;;;;2.95;0.60;;;27.50;8.30;;;;;;5009980;28;20025;-56
2022/06/08 12:35:26;;;;;;;2.90;0.60;;;27.20;8.90;;;;;;5028030;28;20025;-58
2022/06/08 12:38:16;;;;;;;0.90;0.68;;;27.30;9.00;;;;;;4990885;28;20042;-57
2022/06/08 12:40:55;;;;;;;1.98;0.52;;;27.40;9.00;;;;;;5008909;28;20050;-58
2022/06/08 12:43:20;;;;;;;1.27;0.73;;;27.50;8.80;;;;;;4988961;28;20034;-58
2022/06/08 12:46:13;;;;;;;0.80;0.57;;;27.50;8.60;;;;;;5026952;28;20037;-57
2022/06/08 12:48:46;;;;;;;0.40;0.40;;;27.40;8.70;;;;;;5010307;28;20030;-56
2022/06/08 12:51:34;;;;;;;0.68;0.60;;;27.50;8.30;;;;;;5027556;28;20065;-57
2022/06/08 12:54:02;;;;;;;1.92;0.73;;;27.40;8.60;;;;;;4989794;28;20061;-57
2022/06/08 12:56:29;;;;;;;1.17;0.80;;;27.70;8.50;;;;;;5009712;28;20538;-57
2022/06/08 12:58:56;;;;;;;1.27;0.60;;;28.00;8.20;;;;;;4993286;28;20030;-58
2022/06/08 13:01:23;;;;;;;0.57;0.57;;;28.40;7.90;;;;;;5001245;28;20029;-57
2022/06/08 13:03:49;;;;;;;0.40;0.40;;;28.60;7.70;;;;;;5012752;28;20034;-57
2022/06/08 13:06:15;;;;;;;0.73;0.50;;;28.50;7.30;;;;;;5027639;28;20493;-59
2022/06/08 13:08:41;;;;;;;0.70;0.40;;;28.50;7.20;;;;;;4994992;28;20121;-59
2022/06/08 13:11:27;;;;;;;2.25;0.45;;;28.70;7.00;;;;;;5007551;28;20490;-55
2022/06/08 13:13:55;;;;;;;2.08;0.60;;;28.80;7.20;;;;;;5013379;28;20051;-55
2022/06/08 13:16:24;;;;;;;1.50;0.57;;;28.30;7.00;;;;;;5008364;28;20037;-52
2022/06/08 13:18:51;;;;;;;1.38;0.60;;;28.30;7.10;;;;;;5012847;28;20030;-51
2022/06/08 13:21:17;;;;;;;1.00;0.63;;;27.90;7.10;;;;;;5027282;28;20021;-55
2022/06/08 13:23:43;;;;;;;0.98;0.50;;;28.00;7.20;;;;;;4994523;28;20448;-52
2022/06/08 13:26:19;;;;;;;0.77;0.60;;;28.20;7.20;;;;;;5007394;28;20045;-52
2022/06/08 13:28:45;;;;;;;1.63;0.50;;;28.30;7.10;;;;;;4998880;28;20037;-55
2022/06/08 13:31:11;;;;;;;0.65;0.47;;;28.20;7.20;;;;;;5027099;28;20029;-49
2022/06/08 13:36:35;;;;;;;1.60;0.43;;;28.40;7.30;;;;;;5028160;28;20558;-50